Minerva Anna — SVNP — position and weather

sailwx.info

Track history (hours):
 
Tides and Currents Weather Stations Pressure Air Temp Water Temp Dewpoint Dewpoint Depression Visibility Wind Speed Wind Dir Waves Ship Positions

Minerva Anna

Last reported at 2014-Dec-19 03:11 UTC. Time now 2014-Dec-20 02:12 UTC.
Position N 36°11' W 005°24'.

Length 183 m; draft 8 m.

Type: Ship. MMSI: 240729000.

Date/timePositionNaut miles runAvg speedWind from/ knotsBaromVisibWave heightAir tempDewpointWater temp
2014-Dec-19 03:11N 36°11' W 005°24'1 0.9
2014-Dec-19 02:28N 36°10' W 005°24'0 0.1
2014-Dec-19 01:33N 36°10' W 005°24'0 0.0
2014-Dec-19 00:34N 36°10' W 005°24'0 0.1
2014-Dec-18 23:34N 36°10' W 005°24'0 0.0
2014-Dec-18 22:33N 36°10' W 005°24'1 1.3
2014-Dec-18 21:26N 36°09' W 005°24'6 6.4
2014-Dec-18 20:33N 36°03' W 005°23'1 1.1
2014-Dec-18 19:34N 36°02' W 005°23'7612.6
2014-Dec-18 13:33N 35°54' W 006°56'1 0.9
2014-Dec-18 12:33N 35°54' W 006°57'  
2014-Dec-11 18:08N 36°05' W 007°15'1 0.9
2014-Dec-11 17:33N 36°05' W 007°15'1 0.9
2014-Dec-11 16:10N 36°07' W 007°16'  
Track history (hours):
 
Tides and Currents Weather Stations Pressure Air Temp Water Temp Dewpoint Dewpoint Depression Visibility Wind Speed Wind Dir Waves Ship Positions

Minerva Anna

Last reported at 2014-Dec-19 03:11 UTC. Time now 2014-Dec-20 02:12 UTC.
Position N 36°11' W 005°24'.

Length 183 m; draft 8 m.

Type: Ship. MMSI: 240729000.

Date/timePositionNaut miles runAvg speedWind from/ knotsBaromVisibWave heightAir tempDewpointWater temp
2014-Dec-19 03:11N 36°11' W 005°24'1 0.9
2014-Dec-19 02:28N 36°10' W 005°24'0 0.1
2014-Dec-19 01:33N 36°10' W 005°24'0 0.0
2014-Dec-19 00:34N 36°10' W 005°24'0 0.1
2014-Dec-18 23:34N 36°10' W 005°24'0 0.0
2014-Dec-18 22:33N 36°10' W 005°24'1 1.3
2014-Dec-18 21:26N 36°09' W 005°24'6 6.4
2014-Dec-18 20:33N 36°03' W 005°23'1 1.1
2014-Dec-18 19:34N 36°02' W 005°23'7612.6
2014-Dec-18 13:33N 35°54' W 006°56'1 0.9
2014-Dec-18 12:33N 35°54' W 006°57'  
2014-Dec-11 18:08N 36°05' W 007°15'1 0.9
2014-Dec-11 17:33N 36°05' W 007°15'1 0.9
2014-Dec-11 16:10N 36°07' W 007°16'  

Dump ship's entire track history